Time;durP1;ratioP1;P1;durP2;ratioP2;P2;SDS_P1;SDS_P2;PMS_P1;PMS_P2;Temp;Humidity;BMP_temperature;BMP_pressure;BME280_temperature;BME280_humidity;BME280_pressure;Samples;Min_cycle;Max_cycle;Signal;HPM_P1;HPM_P2
2022/08/12 00:44:40;;;;;;;;;;;20.50;99.90;;;;;;5076008;28;19920;-78
2022/08/12 00:47:06;;;;;;;;;;;20.40;99.90;;;;;;5089822;28;19920;-79
2022/08/12 00:49:32;;;;;;;;;;;20.50;99.90;;;;;;5082298;28;19927;-78
2022/08/12 00:52:05;;;;;;;;;;;20.50;99.90;;;;;;5076194;28;19924;-79
2022/08/12 00:54:44;;;;;;;;;;;20.40;99.90;;;;;;5112218;28;19920;-78
2022/08/12 00:57:10;;;;;;;;;;;20.40;99.90;;;;;;5078580;28;19920;-78
2022/08/12 00:59:36;;;;;;;;;;;20.40;99.90;;;;;;5062038;28;20002;-78
2022/08/12 01:02:03;;;;;;;;;;;20.40;99.90;;;;;;5093385;28;19920;-78
2022/08/12 01:12:43;;;;;;;;;;;20.40;99.90;;;;;;5078481;28;20481;-82
2022/08/12 01:15:11;;;;;;;;;;;20.40;99.90;;;;;;5078787;28;19959;-82
2022/08/12 01:17:39;;;;;;;;;;;20.40;99.90;;;;;;5064676;28;19924;-82
2022/08/12 01:20:05;;;;;;;;;;;20.30;99.90;;;;;;5111806;28;19974;-81
2022/08/12 01:22:44;;;;;;;;;;;20.30;99.90;;;;;;5070793;28;20430;-81
2022/08/12 01:25:14;;;;;;;;;;;20.30;99.90;;;;;;5070360;28;20031;-82
2022/08/12 01:27:39;;;;;;;;;;;20.30;99.90;;;;;;5086994;28;20310;-82
2022/08/12 01:30:07;;;;;;;;;;;20.30;99.90;;;;;;5110836;27;19924;-82
2022/08/12 01:32:36;;;;;;;;;;;20.30;99.90;;;;;;5106837;28;19920;-82
2022/08/12 01:35:05;;;;;;;;;;;20.30;99.90;;;;;;5108372;28;20015;-81
2022/08/12 01:37:35;;;;;;;;;;;20.30;99.90;;;;;;5132325;27;19923;-82
2022/08/12 01:40:02;;;;;;;;;;;20.30;99.90;;;;;;5128106;27;19925;-82
2022/08/12 01:42:30;;;;;;;;;;;20.30;99.90;;;;;;5128652;27;19924;-82
2022/08/12 01:44:56;;;;;;;;;;;20.30;99.90;;;;;;5077657;28;19931;-83
2022/08/12 01:47:39;;;;;;;;;;;20.20;99.90;;;;;;5099434;28;19924;-82
2022/08/12 01:50:17;;;;;;;;;;;20.20;99.90;;;;;;5077313;28;19923;-82
2022/08/12 01:52:55;;;;;;;;;;;20.20;99.90;;;;;;5105008;28;19925;-81
2022/08/12 01:55:27;;;;;;;;;;;20.20;99.90;;;;;;5127873;27;19924;-82
2022/08/12 01:58:05;;;;;;;;;;;20.20;99.90;;;;;;5105899;28;19994;-81
2022/08/12 02:00:47;;;;;;;;;;;20.10;99.90;;;;;;5090204;28;20350;-82
2022/08/12 02:03:16;;;;;;;;;;;20.20;99.90;;;;;;5128862;27;19925;-83
2022/08/12 02:11:28;;;;;;;;;;;20.10;99.90;;;;;;5095584;28;20022;-82
2022/08/12 02:13:54;;;;;;;;;;;20.00;99.90;;;;;;5128412;27;19978;-82
2022/08/12 02:16:22;;;;;;;;;;;20.00;99.90;;;;;;5128021;27;19932;-81
2022/08/12 02:19:00;;;;;;;;;;;20.00;99.90;;;;;;5128156;27;19924;-82
2022/08/12 02:21:29;;;;;;;;;;;20.00;99.90;;;;;;5076873;28;19924;-82
2022/08/12 02:23:56;;;;;;;;;;;19.90;99.90;;;;;;5110926;28;20344;-81
2022/08/12 02:26:23;;;;;;;;;;;19.90;99.90;;;;;;5110862;28;19928;-82
2022/08/12 02:28:51;;;;;;;;;;;19.90;99.90;;;;;;5093734;28;19924;-81
2022/08/12 02:31:17;;;;;;;;;;;19.90;99.90;;;;;;5094208;28;20006;-82
2022/08/12 02:33:45;;;;;;;;;;;19.90;99.90;;;;;;5076938;28;19931;-81
2022/08/12 02:36:11;;;;;;;;;;;19.80;99.90;;;;;;5064290;28;19977;-82
2022/08/12 02:38:39;;;;;;;;;;;19.90;99.90;;;;;;5096971;28;19928;-82
2022/08/12 02:41:07;;;;;;;;;;;19.90;99.90;;;;;;5093953;28;20276;-82
2022/08/12 02:43:33;;;;;;;;;;;19.90;99.90;;;;;;5074574;28;19931;-82
2022/08/12 02:46:00;;;;;;;;;;;19.90;99.90;;;;;;5096872;28;19923;-82
2022/08/12 02:48:44;;;;;;;;;;;19.90;99.90;;;;;;5096229;28;20402;-82
2022/08/12 02:51:11;;;;;;;;;;;19.90;99.90;;;;;;5096170;28;19931;-84
2022/08/12 02:53:37;;;;;;;;;;;19.90;99.90;;;;;;5053938;28;19928;-81
2022/08/12 02:56:04;;;;;;;;;;;19.90;99.90;;;;;;5093041;28;20065;-82
2022/08/12 02:58:34;;;;;;;;;;;19.90;99.90;;;;;;5076150;28;19994;-82
2022/08/12 03:01:00;;;;;;;;;;;19.80;99.90;;;;;;5059807;28;19931;-82
2022/08/12 03:03:29;;;;;;;;;;;19.90;99.90;;;;;;5110427;28;20399;-82
2022/08/12 03:05:59;;;;;;;;;;;19.90;99.90;;;;;;5079681;28;19924;-82
2022/08/12 03:08:29;;;;;;;;;;;19.80;99.90;;;;;;5075482;28;19931;-82
2022/08/12 03:10:57;;;;;;;;;;;19.80;99.90;;;;;;5109601;28;20351;-82
2022/08/12 03:13:25;;;;;;;;;;;19.80;99.90;;;;;;5059453;28;19924;-82
2022/08/12 03:15:53;;;;;;;;;;;19.80;99.90;;;;;;5075659;28;19924;-82
2022/08/12 03:18:29;;;;;;;;;;;19.80;99.90;;;;;;5066603;28;19923;-82
2022/08/12 03:20:55;;;;;;;;;;;19.80;99.90;;;;;;5055982;28;19924;-82
2022/08/12 03:23:22;;;;;;;;;;;19.80;99.90;;;;;;5055829;28;19924;-82
2022/08/12 03:25:49;;;;;;;;;;;19.70;99.90;;;;;;5109573;28;19924;-82
2022/08/12 03:28:49;;;;;;;;;;;19.70;99.90;;;;;;5058730;28;19930;-82
2022/08/12 03:31:02;;;;;;;;;;;19.70;99.90;;;;;;5074888;28;19931;-82
2022/08/12 03:33:30;;;;;;;;;;;19.70;99.90;;;;;;5075225;28;19925;-82
2022/08/12 03:35:57;;;;;;;;;;;19.60;99.90;;;;;;5094088;28;19967;-82
2022/08/12 03:38:26;;;;;;;;;;;19.60;99.90;;;;;;5076039;28;20376;-81
2022/08/12 04:00:20;;;;;;;;;;;19.50;99.90;;;;;;5089053;28;19932;-82
2022/08/12 04:02:54;;;;;;;;;;;19.50;99.90;;;;;;5055560;28;20268;-82
2022/08/12 04:05:20;;;;;;;;;;;19.50;99.90;;;;;;5100369;28;19924;-82
2022/08/12 04:07:46;;;;;;;;;;;19.40;99.90;;;;;;5109492;28;20386;-82
2022/08/12 04:10:12;;;;;;;;;;;19.40;99.90;;;;;;5109099;28;19924;-83
2022/08/12 04:15:24;;;;;;;;;;;19.40;99.90;;;;;;5071321;28;19928;-83
2022/08/12 04:17:50;;;;;;;;;;;19.50;99.90;;;;;;5075762;28;19947;-82
2022/08/12 04:20:18;;;;;;;;;;;19.50;99.90;;;;;;5058150;28;19931;-83
2022/08/12 04:22:46;;;;;;;;;;;19.40;99.90;;;;;;5075496;28;19930;-82
2022/08/12 04:25:13;;;;;;;;;;;19.50;99.90;;;;;;5074674;28;19931;-82
2022/08/12 04:27:39;;;;;;;;;;;19.50;99.90;;;;;;5075672;28;19928;-82
2022/08/12 04:30:06;;;;;;;;;;;19.50;99.90;;;;;;5122551;27;20418;-82
2022/08/12 04:32:33;;;;;;;;;;;19.50;99.90;;;;;;5112861;28;19924;-82
2022/08/12 04:34:58;;;;;;;;;;;19.50;99.90;;;;;;5130313;27;20393;-82
2022/08/12 04:37:24;;;;;;;;;;;19.50;99.90;;;;;;5095524;28;19974;-82
2022/08/12 04:39:50;;;;;;;;;;;19.50;99.90;;;;;;5079574;28;19924;-82
2022/08/12 04:42:15;;;;;;;;;;;19.50;99.90;;;;;;5124034;27;20433;-82
2022/08/12 04:44:43;;;;;;;;;;;19.50;99.90;;;;;;5095515;28;19931;-82
2022/08/12 04:47:13;;;;;;;;;;;19.40;99.90;;;;;;5095749;28;19979;-82
2022/08/12 04:49:39;;;;;;;;;;;19.40;99.90;;;;;;5115171;28;19932;-82
2022/08/12 04:52:05;;;;;;;;;;;19.40;99.90;;;;;;5078871;28;19924;-83
2022/08/12 04:54:32;;;;;;;;;;;19.40;99.90;;;;;;5125948;27;19924;-82
2022/08/12 04:56:58;;;;;;;;;;;19.40;99.90;;;;;;5078623;28;20368;-82
2022/08/12 04:59:24;;;;;;;;;;;19.40;99.90;;;;;;5078477;28;20276;-82
2022/08/12 05:01:51;;;;;;;;;;;19.40;99.90;;;;;;5094872;28;19931;-82
2022/08/12 05:04:17;;;;;;;;;;;19.40;99.90;;;;;;5093825;28;20408;-82
2022/08/12 05:06:44;;;;;;;;;;;19.40;99.90;;;;;;5095199;28;19924;-82
2022/08/12 05:09:09;;;;;;;;;;;19.40;99.90;;;;;;5078520;28;20365;-82
2022/08/12 05:11:36;;;;;;;;;;;19.40;99.90;;;;;;5077465;28;19930;-82
2022/08/12 05:14:01;;;;;;;;;;;19.40;99.90;;;;;;5129537;27;19930;-82
2022/08/12 05:16:27;;;;;;;;;;;19.40;99.90;;;;;;5078241;28;19928;-82
2022/08/12 05:18:53;;;;;;;;;;;19.50;99.90;;;;;;5112318;28;19931;-82
2022/08/12 05:21:18;;;;;;;;;;;19.50;99.90;;;;;;5111234;28;20283;-82
2022/08/12 05:23:44;;;;;;;;;;;19.50;99.90;;;;;;5110316;28;19967;-82
2022/08/12 05:26:10;;;;;;;;;;;19.50;99.90;;;;;;5112127;28;20259;-82
2022/08/12 05:28:36;;;;;;;;;;;19.60;99.90;;;;;;5117294;27;19921;-82
2022/08/12 05:31:01;;;;;;;;;;;19.60;99.90;;;;;;5091267;28;20018;-81
2022/08/12 05:33:39;;;;;;;;;;;19.60;99.90;;;;;;5092409;28;19939;-82
2022/08/12 05:36:06;;;;;;;;;;;19.70;99.90;;;;;;5083020;28;19924;-81
2022/08/12 05:41:19;;;;;;;;;;;19.70;99.90;;;;;;5111275;28;20280;-82
2022/08/12 05:43:48;;;;;;;;;;;19.70;99.90;;;;;;5077115;28;19928;-82
2022/08/12 05:46:14;;;;;;;;;;;19.80;99.90;;;;;;5091341;28;19924;-82
2022/08/12 05:48:40;;;;;;;;;;;19.80;99.90;;;;;;5057886;28;20395;-82
2022/08/12 05:51:06;;;;;;;;;;;19.80;99.90;;;;;;5093608;28;19931;-82
2022/08/12 05:53:32;;;;;;;;;;;19.90;99.90;;;;;;5077118;28;20378;-82
2022/08/12 05:55:57;;;;;;;;;;;19.90;99.90;;;;;;5069313;28;20025;-82
2022/08/12 05:58:23;;;;;;;;;;;19.90;99.90;;;;;;5060890;28;19924;-82
2022/08/12 06:00:49;;;;;;;;;;;20.00;99.90;;;;;;5077315;28;20019;-82
2022/08/12 06:03:16;;;;;;;;;;;20.10;99.90;;;;;;5066150;28;19946;-79
2022/08/12 06:05:43;;;;;;;;;;;20.10;99.90;;;;;;5060558;28;19997;-80
2022/08/12 06:08:08;;;;;;;;;;;20.20;99.90;;;;;;5060623;28;19928;-83
2022/08/12 06:10:35;;;;;;;;;;;20.20;99.90;;;;;;5075317;28;19932;-86
2022/08/12 06:13:05;;;;;;;;;;;20.30;99.90;;;;;;5040779;28;19924;-86
2022/08/12 06:15:31;;;;;;;;;;;20.30;99.90;;;;;;5076910;28;19924;-87
2022/08/12 06:18:07;;;;;;;;;;;20.30;99.90;;;;;;5093021;28;19928;-88
2022/08/12 06:20:33;;;;;;;;;;;20.40;99.90;;;;;;5047963;28;19996;-90
2022/08/12 06:22:58;;;;;;;;;;;20.50;99.90;;;;;;5078166;28;20014;-88
2022/08/12 06:25:28;;;;;;;;;;;20.60;99.90;;;;;;5077921;28;20415;-92
2022/08/12 06:27:54;;;;;;;;;;;20.60;99.90;;;;;;5084040;28;19973;-88
2022/08/12 06:30:20;;;;;;;;;;;20.70;99.90;;;;;;5040362;28;19925;-90
2022/08/12 06:32:49;;;;;;;;;;;20.70;99.90;;;;;;5076038;28;19931;-88
2022/08/12 06:35:15;;;;;;;;;;;20.70;99.90;;;;;;5091401;28;19928;-90
2022/08/12 06:37:51;;;;;;;;;;;20.90;99.90;;;;;;5073648;28;20337;-88
2022/08/12 06:42:46;;;;;;;;;;;20.90;99.90;;;;;;5106582;28;20018;-88
2022/08/12 06:43:06;;;;;;;;;;;20.90;99.90;;;;;;5072201;28;19924;-90
2022/08/12 06:45:32;;;;;;;;;;;21.00;99.90;;;;;;5058495;28;20072;-88
2022/08/12 06:48:05;;;;;;;;;;;21.10;99.90;;;;;;5073674;28;19931;-89
2022/08/12 06:50:31;;;;;;;;;;;21.10;99.90;;;;;;5104765;28;19923;-87
2022/08/12 06:52:56;;;;;;;;;;;21.20;99.90;;;;;;5058097;28;20292;-88
2022/08/12 06:55:24;;;;;;;;;;;21.30;99.90;;;;;;5107952;27;19963;-89
2022/08/12 06:57:53;;;;;;;;;;;21.30;99.90;;;;;;5060798;28;19924;-89
2022/08/12 07:00:21;;;;;;;;;;;21.40;99.90;;;;;;5073526;28;19924;-92
2022/08/12 07:02:46;;;;;;;;;;;21.40;99.90;;;;;;5110325;28;20539;-88
2022/08/12 07:05:12;;;;;;;;;;;21.50;99.90;;;;;;5059465;28;20020;-88
2022/08/12 07:07:40;;;;;;;;;;;21.60;99.90;;;;;;5064959;28;20387;-80
2022/08/12 07:10:06;;;;;;;;;;;21.70;99.90;;;;;;5063924;28;19931;-80
2022/08/12 07:12:31;;;;;;;;;;;21.80;99.90;;;;;;5076172;28;20324;-80
2022/08/12 07:15:00;;;;;;;;;;;21.80;99.90;;;;;;5075497;28;20020;-80
2022/08/12 07:17:35;;;;;;;;;;;21.80;99.90;;;;;;5068198;28;19924;-80
2022/08/12 07:20:02;;;;;;;;;;;21.90;99.90;;;;;;5096399;28;20006;-80
2022/08/12 07:22:28;;;;;;;;;;;22.00;99.90;;;;;;5079429;28;19986;-80
2022/08/12 07:27:39;;;;;;;;;;;22.10;99.90;;;;;;5096140;28;19931;-81
2022/08/12 07:30:06;;;;;;;;;;;22.20;99.90;;;;;;5106054;28;19931;-80
2022/08/12 07:32:32;;;;;;;;;;;22.20;99.90;;;;;;5113161;28;20014;-80
2022/08/12 07:34:57;;;;;;;;;;;22.30;99.90;;;;;;5098387;28;20015;-80
2022/08/12 07:37:23;;;;;;;;;;;22.40;99.90;;;;;;5078154;28;19962;-80
2022/08/12 07:39:49;;;;;;;;;;;22.50;99.90;;;;;;5076336;28;19924;-80
2022/08/12 07:42:14;;;;;;;;;;;22.60;99.90;;;;;;5075662;28;19924;-80
2022/08/12 07:44:42;;;;;;;;;;;22.60;99.90;;;;;;5093806;28;19924;-81
2022/08/12 07:47:08;;;;;;;;;;;22.70;99.90;;;;;;5088150;28;19984;-80
2022/08/12 07:49:33;;;;;;;;;;;22.80;99.90;;;;;;5092190;28;19924;-80
2022/08/12 07:51:59;;;;;;;;;;;22.90;99.90;;;;;;5075137;28;19924;-81
2022/08/12 07:54:25;;;;;;;;;;;23.00;99.90;;;;;;5109329;28;19928;-80
2022/08/12 07:56:50;;;;;;;;;;;23.00;99.90;;;;;;5091329;28;19993;-80
2022/08/12 07:59:16;;;;;;;;;;;23.10;99.90;;;;;;5108714;28;19931;-80
2022/08/12 08:01:42;;;;;;;;;;;23.20;99.90;;;;;;5127132;27;19927;-80
2022/08/12 08:06:52;;;;;;;;;;;23.40;99.90;;;;;;5111755;27;19932;-80
2022/08/12 08:09:20;;;;;;;;;;;23.50;99.90;;;;;;5098848;28;19935;-80
2022/08/12 08:14:30;;;;;;;;;;;23.70;99.90;;;;;;5113343;28;19932;-80
2022/08/12 08:16:56;;;;;;;;;;;23.80;99.90;;;;;;5096903;28;19924;-80
2022/08/12 08:19:22;;;;;;;;;;;23.90;99.90;;;;;;5079250;28;19924;-80
2022/08/12 08:21:53;;;;;;;;;;;24.00;99.90;;;;;;5112573;28;19931;-80
2022/08/12 08:24:19;;;;;;;;;;;24.10;99.90;;;;;;5112898;28;20379;-80
2022/08/12 08:26:46;;;;;;;;;;;24.10;99.90;;;;;;5091317;28;19924;-80
2022/08/12 08:29:12;;;;;;;;;;;24.20;99.90;;;;;;5080329;28;19924;-81
2022/08/12 08:31:42;;;;;;;;;;;24.30;99.90;;;;;;5078614;28;19925;-80
2022/08/12 08:34:08;;;;;;;;;;;24.40;99.90;;;;;;5129267;27;19928;-81
2022/08/12 08:36:33;;;;;;;;;;;24.50;99.90;;;;;;5100966;28;19924;-80
2022/08/12 08:38:59;;;;;;;;;;;24.70;99.90;;;;;;5095540;28;19931;-80
2022/08/12 08:44:10;;;;;;;;;;;24.80;99.90;;;;;;5118442;27;20228;-85
2022/08/12 08:46:36;;;;;;;;;;;24.90;99.90;;;;;;5111737;28;20275;-85
2022/08/12 08:49:02;;;;;;;;;;;25.00;99.90;;;;;;5078662;28;19931;-78
2022/08/12 08:51:28;;;;;;;;;;;25.10;99.90;;;;;;5058054;28;19928;-83
2022/08/12 08:53:53;;;;;;;;;;;25.10;99.90;;;;;;5093550;28;19948;-80
2022/08/12 08:56:19;;;;;;;;;;;25.20;99.90;;;;;;5077897;28;19924;-81
2022/08/12 08:58:45;;;;;;;;;;;25.30;99.90;;;;;;5078146;28;19924;-83
2022/08/12 09:01:16;;;;;;;;;;;25.40;99.90;;;;;;5109543;28;19924;-83
2022/08/12 09:03:42;;;;;;;;;;;25.50;99.90;;;;;;5112349;28;20018;-82
2022/08/12 09:06:07;;;;;;;;;;;25.60;99.90;;;;;;5106451;28;20010;-82
2022/08/12 09:08:33;;;;;;;;;;;25.70;99.90;;;;;;5094530;28;19932;-82
2022/08/12 09:13:26;;;;;;;;;;;25.70;99.90;;;;;;5093909;28;19931;-82
2022/08/12 09:13:44;;;;;;;;;;;25.90;99.90;;;;;;5093097;28;19928;-83
2022/08/12 09:16:10;;;;;;;;;;;25.90;99.90;;;;;;5076183;28;20276;-83
2022/08/12 09:18:35;;;;;;;;;;;26.00;99.90;;;;;;5106538;28;19951;-86
2022/08/12 09:21:02;;;;;;;;;;;26.10;99.90;;;;;;5107037;28;19924;-88
2022/08/12 09:23:28;;;;;;;;;;;26.20;99.90;;;;;;5092299;28;19975;-87
2022/08/12 09:25:53;;;;;;;;;;;26.30;99.90;;;;;;5106002;28;20390;-89
2022/08/12 09:28:23;;;;;;;;;;;26.30;99.90;;;;;;5094110;28;19924;-90
2022/08/12 09:30:50;;;;;;;;;;;26.40;99.90;;;;;;5122296;27;19960;-89
2022/08/12 09:33:15;;;;;;;;;;;26.40;99.90;;;;;;5087725;28;19932;-81
2022/08/12 09:35:42;;;;;;;;;;;26.50;99.90;;;;;;5077022;28;19975;-80
2022/08/12 09:38:10;;;;;;;;;;;26.60;99.90;;;;;;5080187;28;19934;-80
2022/08/12 09:40:36;;;;;;;;;;;26.60;99.90;;;;;;5068949;28;19948;-80
2022/08/12 09:45:47;;;;;;;;;;;26.70;99.90;;;;;;5091146;28;20014;-80
2022/08/12 09:48:16;;;;;;;;;;;26.80;99.90;;;;;;5107595;28;19970;-79
2022/08/12 09:50:46;;;;;;;;;;;26.90;99.90;;;;;;5108212;28;20513;-81
2022/08/12 09:53:23;;;;;;;;;;;27.00;99.90;;;;;;5125073;27;19935;-78
2022/08/12 09:55:53;;;;;;;;;;;27.10;99.90;;;;;;5104683;28;19971;-79
2022/08/12 09:58:24;;;;;;;;;;;27.20;99.90;;;;;;5105402;28;19924;-78
2022/08/12 10:00:53;;;;;;;;;;;27.30;99.90;;;;;;5066649;28;19931;-78
2022/08/12 10:03:20;;;;;;;;;;;27.30;99.90;;;;;;5090956;28;19928;-77
2022/08/12 10:05:47;;;;;;;;;;;27.40;99.90;;;;;;5124015;27;20005;-78
2022/08/12 10:08:16;;;;;;;;;;;27.50;99.90;;;;;;5090393;28;19931;-80
2022/08/12 10:13:42;;;;;;;;;;;27.60;99.90;;;;;;5071004;28;19943;-83
2022/08/12 10:16:11;;;;;;;;;;;27.60;99.90;;;;;;5072900;28;19950;-78
2022/08/12 10:18:42;;;;;;;;;;;27.70;99.90;;;;;;5089496;28;19931;-80
2022/08/12 10:21:08;;;;;;;;;;;27.80;99.90;;;;;;5061754;28;20300;-75
2022/08/12 10:23:34;;;;;;;;;;;27.90;99.90;;;;;;5062974;28;19932;-75
2022/08/12 10:31:48;;;;;;;;;;;28.20;99.90;;;;;;5051378;28;19935;-78
2022/08/12 10:34:13;;;;;;;;;;;28.30;99.90;;;;;;5071792;28;20816;-82
2022/08/12 10:36:40;;;;;;;;;;;28.40;99.60;;;;;;5070045;28;19928;-76
2022/08/12 10:39:10;;;;;;;;;;;28.50;99.00;;;;;;5103777;28;20419;-75
2022/08/12 10:44:21;;;;;;;;;;;28.60;98.10;;;;;;5087951;28;19935;-77
2022/08/12 10:46:47;;;;;;;;;;;28.70;97.70;;;;;;5104075;28;19950;-77
2022/08/12 10:49:12;;;;;;;;;;;28.80;97.80;;;;;;5054080;28;19928;-77
2022/08/12 10:51:39;;;;;;;;;;;28.90;97.90;;;;;;5107404;28;19935;-76
2022/08/12 10:54:05;;;;;;;;;;;29.00;98.10;;;;;;5073007;28;19928;-75
2022/08/12 10:56:31;;;;;;;;;;;29.00;97.60;;;;;;5073216;28;19931;-76
2022/08/12 10:58:57;;;;;;;;;;;29.10;97.10;;;;;;5101888;27;19959;-77
2022/08/12 11:01:23;;;;;;;;;;;29.10;97.50;;;;;;5065644;28;20388;-76
2022/08/12 11:03:49;;;;;;;;;;;29.30;95.80;;;;;;5112962;27;20012;-75
2022/08/12 11:06:14;;;;;;;;;;;29.30;96.20;;;;;;5084747;28;19924;-75
2022/08/12 11:08:40;;;;;;;;;;;29.40;96.30;;;;;;5082130;28;20271;-75
2022/08/12 11:11:07;;;;;;;;;;;29.50;97.00;;;;;;5090463;28;19936;-75
2022/08/12 11:13:36;;;;;;;;;;;29.70;98.10;;;;;;5115425;27;19924;-76
2022/08/12 11:16:01;;;;;;;;;;;29.80;99.20;;;;;;5112675;27;19951;-75
2022/08/12 11:18:27;;;;;;;;;;;29.80;98.20;;;;;;5108511;27;19928;-75
2022/08/12 11:20:53;;;;;;;;;;;29.90;97.90;;;;;;5089248;28;19924;-75
2022/08/12 11:23:19;;;;;;;;;;;29.90;98.00;;;;;;5073892;28;19928;-76
2022/08/12 11:25:45;;;;;;;;;;;29.90;97.30;;;;;;5073110;28;20406;-76
2022/08/12 11:28:11;;;;;;;;;;;30.10;98.10;;;;;;5064959;28;19924;-76
2022/08/12 11:30:37;;;;;;;;;;;30.30;97.70;;;;;;5096957;28;19950;-75
2022/08/12 11:33:02;;;;;;;;;;;30.60;98.00;;;;;;5091384;28;19928;-79
2022/08/12 11:35:28;;;;;;;;;;;30.80;97.50;;;;;;5090202;28;20253;-77
2022/08/12 11:37:53;;;;;;;;;;;31.10;97.10;;;;;;5080726;28;19967;-78
2022/08/12 11:40:19;;;;;;;;;;;31.30;96.30;;;;;;5071140;28;20261;-82
2022/08/12 11:42:45;;;;;;;;;;;31.50;95.60;;;;;;5099620;28;20022;-83
2022/08/12 11:45:10;;;;;;;;;;;31.80;96.50;;;;;;5087230;28;19977;-82
2022/08/12 11:47:36;;;;;;;;;;;32.00;95.80;;;;;;5071916;28;19956;-79
2022/08/12 11:50:02;;;;;;;;;;;32.20;95.60;;;;;;5090056;28;19978;-79
2022/08/12 11:52:28;;;;;;;;;;;32.40;94.50;;;;;;5106835;28;19982;-80
2022/08/12 11:54:53;;;;;;;;;;;32.70;94.50;;;;;;5089807;28;19928;-82
2022/08/12 11:57:19;;;;;;;;;;;32.90;94.40;;;;;;5106777;28;19928;-78
2022/08/12 11:59:44;;;;;;;;;;;33.20;95.00;;;;;;5123511;28;19925;-78
2022/08/12 12:02:10;;;;;;;;;;;33.30;95.60;;;;;;5103329;28;20364;-79
2022/08/12 12:04:35;;;;;;;;;;;33.50;95.60;;;;;;5088189;28;19928;-78
2022/08/12 12:07:01;;;;;;;;;;;33.60;94.20;;;;;;5072735;28;19928;-80
2022/08/12 12:09:27;;;;;;;;;;;33.80;95.20;;;;;;5088930;28;19981;-79
2022/08/12 12:11:52;;;;;;;;;;;34.00;94.20;;;;;;5116776;28;19935;-80
2022/08/12 12:14:18;;;;;;;;;;;34.10;93.40;;;;;;5083911;28;19924;-80
2022/08/12 12:16:43;;;;;;;;;;;34.30;94.40;;;;;;5072220;28;19924;-75
2022/08/12 12:19:09;;;;;;;;;;;34.20;94.40;;;;;;5119459;28;19924;-76
2022/08/12 12:21:34;;;;;;;;;;;34.30;94.20;;;;;;5091126;28;20272;-78
2022/08/12 12:24:00;;;;;;;;;;;34.60;93.90;;;;;;5073560;28;19935;-78
2022/08/12 12:26:26;;;;;;;;;;;34.70;94.30;;;;;;5092555;28;19924;-77
2022/08/12 12:28:51;;;;;;;;;;;34.70;93.50;;;;;;5077672;28;20382;-78
2022/08/12 12:31:17;;;;;;;;;;;34.80;92.60;;;;;;5069241;28;19927;-78
2022/08/12 12:33:43;;;;;;;;;;;35.10;92.50;;;;;;5112306;28;20516;-78
2022/08/12 12:36:08;;;;;;;;;;;35.10;92.80;;;;;;5093770;28;20007;-85
2022/08/12 12:38:34;;;;;;;;;;;35.10;92.30;;;;;;5094233;28;20367;-80
2022/08/12 12:40:59;;;;;;;;;;;35.20;92.60;;;;;;5087250;28;19924;-80
2022/08/12 12:43:25;;;;;;;;;;;35.30;92.30;;;;;;5090669;28;19924;-79
2022/08/12 12:45:51;;;;;;;;;;;35.30;92.10;;;;;;5049403;28;19930;-78
2022/08/12 12:48:17;;;;;;;;;;;35.20;91.80;;;;;;5076876;28;19969;-78
2022/08/12 12:50:44;;;;;;;;;;;35.30;91.30;;;;;;5079938;28;20018;-78
2022/08/12 12:53:11;;;;;;;;;;;35.30;91.50;;;;;;5076244;28;19924;-78
2022/08/12 12:55:38;;;;;;;;;;;35.40;91.20;;;;;;5080925;28;19993;-80
2022/08/12 12:58:04;;;;;;;;;;;35.60;91.10;;;;;;5065109;28;20390;-78
2022/08/12 13:00:31;;;;;;;;;;;35.70;90.90;;;;;;5093640;28;20130;-79
2022/08/12 13:02:57;;;;;;;;;;;35.60;91.00;;;;;;5076853;28;19936;-78
2022/08/12 13:05:24;;;;;;;;;;;35.60;91.20;;;;;;5076405;28;19928;-79
2022/08/12 13:07:52;;;;;;;;;;;35.70;90.60;;;;;;5088364;28;19927;-80
2022/08/12 13:10:18;;;;;;;;;;;35.70;90.40;;;;;;5084284;28;19932;-79
2022/08/12 13:12:43;;;;;;;;;;;35.60;90.50;;;;;;5107845;28;19980;-81
2022/08/12 13:15:14;;;;;;;;;;;35.70;90.60;;;;;;5074637;28;19928;-78
2022/08/12 13:17:46;;;;;;;;;;;35.70;89.80;;;;;;5078222;28;20406;-79
2022/08/12 13:20:13;;;;;;;;;;;35.90;90.70;;;;;;5089992;28;19928;-78
2022/08/12 13:22:38;;;;;;;;;;;36.10;90.20;;;;;;5075242;28;20645;-79
2022/08/12 13:25:04;;;;;;;;;;;36.10;89.60;;;;;;5107683;28;20007;-80
2022/08/12 13:27:34;;;;;;;;;;;36.20;90.20;;;;;;5073652;28;19950;-79
2022/08/12 13:30:00;;;;;;;;;;;36.40;90.00;;;;;;5064771;28;19946;-78
2022/08/12 13:32:29;;;;;;;;;;;36.40;89.20;;;;;;5092178;28;20015;-79
2022/08/12 13:34:55;;;;;;;;;;;36.60;89.70;;;;;;5091650;28;19946;-79
2022/08/12 13:37:25;;;;;;;;;;;36.70;88.50;;;;;;5091441;28;20688;-79
2022/08/12 13:39:51;;;;;;;;;;;36.90;88.60;;;;;;5125288;27;19928;-78
2022/08/12 13:42:21;;;;;;;;;;;37.10;87.90;;;;;;5109307;27;19973;-81
2022/08/12 13:44:49;;;;;;;;;;;37.10;85.80;;;;;;5070509;28;19928;-80
2022/08/12 13:47:15;;;;;;;;;;;37.10;87.80;;;;;;5070663;28;19933;-80
2022/08/12 13:49:41;;;;;;;;;;;37.10;86.50;;;;;;5069983;28;20069;-79
2022/08/12 13:52:07;;;;;;;;;;;37.30;85.60;;;;;;5088411;28;20015;-78
2022/08/12 13:54:32;;;;;;;;;;;37.70;85.90;;;;;;5070677;28;20012;-79
2022/08/12 13:56:58;;;;;;;;;;;38.00;86.60;;;;;;5087662;28;19931;-79
2022/08/12 13:59:24;;;;;;;;;;;38.20;84.00;;;;;;5053105;28;19928;-79
2022/08/12 14:01:51;;;;;;;;;;;38.20;85.10;;;;;;5119771;27;19935;-78
2022/08/12 14:04:16;;;;;;;;;;;38.40;84.40;;;;;;5069452;28;19999;-80
2022/08/12 14:06:42;;;;;;;;;;;38.50;83.00;;;;;;5086843;28;19931;-77
2022/08/12 14:09:08;;;;;;;;;;;38.70;83.40;;;;;;5090266;28;19931;-79
2022/08/12 14:11:34;;;;;;;;;;;39.00;84.00;;;;;;5094426;28;19936;-82
2022/08/12 14:13:59;;;;;;;;;;;39.40;83.30;;;;;;5091157;28;19985;-79
2022/08/12 14:16:26;;;;;;;;;;;39.80;81.40;;;;;;5089542;28;19973;-79
2022/08/12 14:18:52;;;;;;;;;;;39.70;80.30;;;;;;5077780;28;19943;-79
2022/08/12 14:21:19;;;;;;;;;;;39.50;76.50;;;;;;5096307;28;19969;-78
2022/08/12 14:23:50;;;;;;;;;;;39.30;76.80;;;;;;5108896;28;19924;-80
2022/08/12 14:26:19;;;;;;;;;;;39.50;75.60;;;;;;5096473;28;20011;-79
2022/08/12 14:28:45;;;;;;;;;;;39.60;75.00;;;;;;5113459;27;20014;-79
2022/08/12 14:31:12;;;;;;;;;;;39.50;73.70;;;;;;5020023;28;19928;-77
2022/08/12 14:33:47;;;;;;;;;;;39.70;73.70;;;;;;5080906;28;19935;-74
2022/08/12 14:36:20;;;;;;;;;;;39.60;73.70;;;;;;5066365;28;19974;-77
2022/08/12 14:38:46;;;;;;;;;;;39.70;75.80;;;;;;5081616;28;19938;-76
2022/08/12 14:41:13;;;;;;;;;;;39.80;76.30;;;;;;5094313;28;20022;-77
2022/08/12 14:43:39;;;;;;;;;;;40.30;76.90;;;;;;5087971;28;19924;-77
2022/08/12 14:46:05;;;;;;;;;;;40.50;76.80;;;;;;5063747;28;20448;-79
2022/08/12 14:48:31;;;;;;;;;;;40.20;75.30;;;;;;5056295;28;19975;-80
2022/08/12 14:50:57;;;;;;;;;;;40.10;76.20;;;;;;5090325;28;20018;-79
2022/08/12 14:53:23;;;;;;;;;;;40.00;76.30;;;;;;5086060;28;20333;-84
2022/08/12 14:55:49;;;;;;;;;;;40.00;76.00;;;;;;5085268;28;19935;-78
2022/08/12 14:58:15;;;;;;;;;;;39.90;75.90;;;;;;5073533;28;19924;-79
2022/08/12 15:03:29;;;;;;;;;;;39.90;74.80;;;;;;5053605;28;19928;-84
2022/08/12 15:05:57;;;;;;;;;;;39.80;75.70;;;;;;5053660;28;19929;-80
2022/08/12 15:08:23;;;;;;;;;;;39.70;75.30;;;;;;5087018;28;20027;-80
2022/08/12 15:10:49;;;;;;;;;;;39.70;75.50;;;;;;5087604;28;19934;-80
2022/08/12 15:13:16;;;;;;;;;;;39.50;75.10;;;;;;5040019;28;19928;-80
2022/08/12 15:15:42;;;;;;;;;;;39.30;75.50;;;;;;5086654;28;19936;-81
2022/08/12 15:18:08;;;;;;;;;;;38.90;75.30;;;;;;5058909;28;20015;-80
2022/08/12 15:20:36;;;;;;;;;;;38.50;74.60;;;;;;5039161;28;20438;-80
2022/08/12 15:23:02;;;;;;;;;;;38.30;75.40;;;;;;5054757;28;19935;-81
2022/08/12 15:25:28;;;;;;;;;;;37.90;75.40;;;;;;5055414;28;19979;-83
2022/08/12 15:27:55;;;;;;;;;;;37.70;75.60;;;;;;5088747;28;19975;-79
2022/08/12 15:30:23;;;;;;;;;;;37.30;76.20;;;;;;5082562;28;19994;-79
2022/08/12 15:32:55;;;;;;;;;;;36.60;76.60;;;;;;5100537;28;20149;-80
2022/08/12 15:35:21;;;;;;;;;;;36.10;78.80;;;;;;5098339;28;19935;-78
2022/08/12 15:38:03;;;;;;;;;;;35.60;79.40;;;;;;5117261;27;19969;-78
2022/08/12 15:40:29;;;;;;;;;;;35.10;79.80;;;;;;5070011;28;19958;-83
2022/08/12 15:42:56;;;;;;;;;;;34.70;79.80;;;;;;5087734;28;19928;-79
2022/08/12 15:45:22;;;;;;;;;;;34.50;80.90;;;;;;5107745;27;19976;-78
2022/08/12 15:47:51;;;;;;;;;;;34.40;81.60;;;;;;5119763;28;20037;-81
2022/08/12 15:50:27;;;;;;;;;;;34.10;80.90;;;;;;5069515;28;19932;-81
2022/08/12 15:52:53;;;;;;;;;;;34.00;81.30;;;;;;5121342;28;20737;-78
2022/08/12 15:55:19;;;;;;;;;;;33.80;81.50;;;;;;5072049;28;20276;-79
2022/08/12 15:57:52;;;;;;;;;;;33.60;82.50;;;;;;5071264;28;19928;-79
2022/08/12 16:00:38;;;;;;;;;;;33.20;82.10;;;;;;5088196;28;20410;-78
2022/08/12 16:03:06;;;;;;;;;;;32.90;83.00;;;;;;5096699;28;19935;-78
2022/08/12 16:05:33;;;;;;;;;;;32.70;83.30;;;;;;5106399;28;19935;-80
2022/08/12 16:07:59;;;;;;;;;;;32.50;84.00;;;;;;5106581;28;19924;-77